Station info - map view · info · telemetry · weather · raw · status · beacons · messages · bulletins · browse · moving · my account
Callsign, ship name or locator: Clear       
It is possible to search using wildcards (*?) after a prefix. Example: OH*
APRS station IU2IHY-7 - show graphs
Map loading...
Mic-E message: En route
Location: 45°15.15' N 8°45.15' E - locator JN45JG00HO - show map - static map
5.2 miles West bearing 261° from Gambolò, Provincia di Pavia, Lombardy, Italy [?]
7.9 miles West bearing 279° from Borgo San Siro, Provincia di Pavia, Lombardy, Italy
25.8 miles Southwest bearing 236° from Milan, Province of Milan, Lombardy, Italy
53.4 miles East bearing 76° from Torino, Provincia di Torino, Piedmont, Italy
Last position: 2018-04-08 05:30:38 EDT (18d 23h6m ago)
2018-04-08 11:30:38 CEST local time at Gambolò, Italy [?]
Altitude: 335 ft
Position ambiguous: Precision reduced at transmitter by 1 digits, position resolution approximately 202.3 yards.
Course: 271°
Speed: 16 MPH
Device: Yaesu: FT1D (ht)
Last path: IU2IHY-7>TU1UQL via WIDE1-1,WIDE2-1,qAR,IR2UFH (good)
Positions stored: 721
Other SSIDs: IU2IHY IU2IHY-10 IU2IHY-5
Stations near current position of IU2IHY-7 - show more
callsign distance last heard - EDT      callsign distance last heard - EDT
IR2UFH4.9 miles 85°2018-04-27 02:19:53 L40301225.8 miles 212°2018-04-18 08:36:12
L40301235.8 miles 311°2018-04-19 20:45:14 IU2KDC6.2 miles 162°2018-04-13 18:34:09
IZ2EVE-Y6.2 miles 53°2018-04-19 02:01:32 I2FUZ6.6 miles 115°2018-04-23 12:31:48
IK2AVH-56.6 miles 117°2018-04-14 15:03:02 IZ2EVE-16.7 miles 40°2018-04-18 11:49:07
L40302547.5 miles 256°2018-04-18 21:08:13 IZ2EVE-107.6 miles 15°2018-04-27 04:16:56
IZ2EVE-R7.9 miles 21°2018-04-15 11:20:27 IZ2EVE B7.9 miles 21°2018-04-10 05:50:46
IZ2EVE-B7.9 miles 21°2018-04-10 05:50:56 IZ2EVE-H07.9 miles 21°2018-04-27 04:02:19
IR2DK-R7.9 miles 23°2018-04-06 18:11:04 IZ2EVE-97.9 miles 23°2018-04-19 12:08:35
IZ2EVE7.9 miles 23°2018-04-27 04:09:58 N22505339.0 miles 190°2018-03-30 07:42:29
IR2UGB-1010.2 miles 192°2018-04-27 04:16:56 IZ1GRO-510.4 miles 351°2018-04-22 08:03:49
Stations which heard IU2IHY-7 directly on radio –
callsign pkts first heard - EDT last heard longest (tx => rx) longest at - EDT
IR1AO 6 2018-04-03 11:54:22 2018-04-04 11:06:33 JN45IF > JN35XO 43.2 miles 305° 2018-04-04 03:18:25
IK2XDE-6 22 2018-04-03 11:39:41 2018-04-04 13:26:50 JN45KI > JN45MQ 26.2 miles 21° 2018-04-04 12:10:24
IR2AO 1 2018-04-04 12:32:21 2018-04-04 12:32:21 JN45MK > JN45PM 14.8 miles 61° 2018-04-04 12:32:21
IR2UBX-11 55 2018-04-03 11:22:10 2018-04-05 10:32:39 JN45IF > JN45MQ 36.9 miles 29° 2018-04-04 07:58:56
IW2HUZ-11 34 2018-04-03 11:22:09 2018-04-05 09:42:45 JN45IC > JN45MU 55.9 miles 17° 2018-04-04 08:14:50
IR2UGB 152 2018-04-03 11:57:39 2018-04-04 14:17:11 JN45HH > JN45IC 14.1 miles 169° 2018-04-03 11:57:39
IR1UFB 39 2018-04-03 11:57:38 2018-04-04 14:19:14 JN45KH > JN35WD 47.4 miles 259° 2018-04-04 14:12:29
IR1DM 73 2018-04-03 11:53:49 2018-04-04 11:41:59 JN45HI > JN44JS 40.7 miles 170° 2018-04-03 11:56:30
IR2S 49 2018-04-03 11:30:41 2018-04-04 14:16:10 JN45HD > JN55DQ 85.2 miles 65° 2018-04-04 08:06:50
IZ2EVE 348 2018-04-03 11:23:42 2018-04-05 10:41:31 JN45JD > JN45JI 13.6 miles 5° 2018-04-04 09:45:03
IR2UFW 144 2018-04-03 11:26:24 2018-04-05 10:36:23 JN45JD > JN45LI 17.3 miles 28° 2018-04-04 04:41:05
IZ1XBB-1 216 2018-04-03 11:39:13 2018-04-05 09:23:46 JN45MJ > JN44KV 36.9 miles 192° 2018-04-04 13:15:58
IR2UEZ 44 2018-04-03 11:23:41 2018-04-05 09:23:43 JN45JF > JN45JP 29.9 miles 2° 2018-04-04 09:50:25
IR2UFH 239 2018-04-03 03:21:32 2018-04-08 05:30:38 JN45HH > JN45KG 12.2 miles 112° 2018-04-04 11:06:01
IU2ITE 13 2018-04-04 12:13:15 2018-04-04 13:17:59 JN45KH > JN45MK 12.5 miles 46° 2018-04-04 12:13:15
IR2UEI 116 2018-04-03 11:22:41 2018-04-05 10:32:37 JN45IF > JN45JL 16.1 miles 18° 2018-04-04 11:46:29
IZ1TMF 2 2018-04-03 11:42:21 2018-04-04 05:57:30 JN45IJ > JN35PA 75.3 miles 251° 2018-04-03 11:42:21

Only position packets which were originated by the station are shown here. The range statistics show some extra long hops, because some digipeaters do not correctly add themselves to the digipeater path. Please check the raw packets.
About this site
This page shows real-time information collected from the Automatic Position Reporting System Internet network (APRS-IS). APRS is used by amateur (ham) radio operators to transmit real-time position information, weather data, telemetry and messages over the radio. A vehicle equipped with a GPS receiver, a VHF transmitter or HF transceiver and a small computer device called a tracker transmits it's location, speed and course in a small data packet, which is then received by a nearby iGate receiving site which forwards the packet on the Internet. Systems connected to the Internet can send information on the APRS-IS without a radio transmitter, or collect and display information transmitted anywhere in the world.
FAQ · Blog · Discussion group · Linking to aprs.fi · AIS sites · Service status · Database statistics · Advertising on aprs.fi · Technical details · API · Change log · Planned changes · Credits and thanks · Terms Of Service · iPhone/iPad APRS